createdAt,value
2018-10-05T00:01:31.525Z,99.90
2018-10-05T00:03:59.736Z,99.90
2018-10-05T00:06:27.934Z,99.90
2018-10-05T00:08:56.079Z,99.90
2018-10-05T00:11:24.220Z,99.90
2018-10-05T00:13:52.394Z,99.90
2018-10-05T00:16:20.559Z,99.90
2018-10-05T00:18:48.819Z,99.90
2018-10-05T00:21:16.991Z,99.90
2018-10-05T00:23:45.093Z,99.90
2018-10-05T00:26:13.264Z,99.90
2018-10-05T00:28:41.429Z,99.90
2018-10-05T00:31:09.601Z,99.90
2018-10-05T00:33:37.752Z,99.90
2018-10-05T00:36:05.943Z,99.90
2018-10-05T00:38:34.127Z,99.90
2018-10-05T00:41:02.305Z,99.90
2018-10-05T00:43:31.447Z,99.90
2018-10-05T00:45:59.740Z,99.90
2018-10-05T00:48:27.836Z,99.90
2018-10-05T00:50:56.072Z,99.90
2018-10-05T00:53:24.272Z,99.90
2018-10-05T00:55:52.437Z,99.90
2018-10-05T00:58:20.639Z,99.90
2018-10-05T01:00:48.828Z,99.90
2018-10-05T01:03:16.994Z,99.90
2018-10-05T01:05:45.288Z,99.90
2018-10-05T01:08:13.481Z,99.90
2018-10-05T01:10:41.776Z,99.90
2018-10-05T01:13:09.921Z,99.90
2018-10-05T01:15:38.190Z,99.90
2018-10-05T01:18:06.666Z,99.90
2018-10-05T01:20:34.804Z,99.90
2018-10-05T01:23:02.914Z,99.90
2018-10-05T01:25:31.116Z,99.90
2018-10-05T01:27:59.310Z,99.90
2018-10-05T01:30:27.474Z,99.90
2018-10-05T01:32:55.603Z,99.90
2018-10-05T01:35:23.840Z,99.90
2018-10-05T01:37:51.948Z,99.90
2018-10-05T01:40:20.162Z,99.90
2018-10-05T01:42:48.334Z,99.90
2018-10-05T01:45:16.493Z,99.90
2018-10-05T01:47:44.694Z,99.90
2018-10-05T01:50:12.833Z,99.90
2018-10-05T01:52:40.969Z,99.90
2018-10-05T01:55:09.077Z,99.90
2018-10-05T01:57:37.314Z,99.90
2018-10-05T02:00:05.433Z,99.90
2018-10-05T02:02:33.685Z,99.90
2018-10-05T02:05:01.805Z,99.90
2018-10-05T02:07:29.934Z,99.90
2018-10-05T02:09:58.120Z,99.90
2018-10-05T02:12:26.277Z,99.90
2018-10-05T02:14:54.366Z,99.90
2018-10-05T02:17:22.525Z,99.90
2018-10-05T02:19:50.681Z,99.90
2018-10-05T02:22:18.788Z,99.90
2018-10-05T02:24:46.968Z,99.90
2018-10-05T02:27:15.104Z,99.90
2018-10-05T02:29:43.275Z,99.90
2018-10-05T02:32:11.529Z,99.90
2018-10-05T02:34:39.668Z,99.90
2018-10-05T02:37:19.751Z,99.90
2018-10-05T02:39:48.069Z,99.90
2018-10-05T02:42:16.293Z,99.90
2018-10-05T02:44:44.472Z,99.90
2018-10-05T02:47:12.633Z,99.90
2018-10-05T02:49:41.458Z,99.90
2018-10-05T02:52:10.897Z,99.90
2018-10-05T02:54:39.165Z,99.90
2018-10-05T02:57:07.590Z,99.90
2018-10-05T02:59:36.156Z,99.90
2018-10-05T03:02:23.948Z,99.90
2018-10-05T03:07:31.179Z,99.90
2018-10-05T03:10:01.341Z,99.90
2018-10-05T03:12:30.283Z,99.90
2018-10-05T03:14:59.453Z,99.90
2018-10-05T03:17:28.088Z,99.90
2018-10-05T03:19:56.770Z,99.90
2018-10-05T03:22:25.508Z,99.90
2018-10-05T03:24:53.682Z,99.90
2018-10-05T03:27:21.874Z,99.90
2018-10-05T03:29:50.969Z,99.90
2018-10-05T03:32:19.193Z,99.90
2018-10-05T03:34:47.471Z,99.90
2018-10-05T03:37:15.750Z,99.90
2018-10-05T03:39:43.929Z,99.90
2018-10-05T03:42:12.618Z,99.90
2018-10-05T03:44:40.938Z,99.90
2018-10-05T03:47:09.176Z,99.90
2018-10-05T03:49:37.398Z,99.90
2018-10-05T03:52:07.420Z,99.90
2018-10-05T03:54:35.838Z,99.90
2018-10-05T03:57:06.000Z,99.90
2018-10-05T03:59:34.202Z,99.90
2018-10-05T04:02:02.503Z,99.90
2018-10-05T04:04:30.746Z,99.90
2018-10-05T04:07:00.402Z,99.90
2018-10-05T04:09:28.568Z,99.90
2018-10-05T04:11:57.457Z,99.90
2018-10-05T04:14:27.113Z,99.90
2018-10-05T04:16:55.334Z,99.90
2018-10-05T04:19:23.854Z,99.90
2018-10-05T04:21:51.989Z,99.90
2018-10-05T04:24:20.207Z,99.90
2018-10-05T04:26:48.522Z,99.90
2018-10-05T04:29:16.756Z,99.90
2018-10-05T04:31:45.405Z,99.90
2018-10-05T04:34:13.679Z,99.90
2018-10-05T04:36:41.984Z,99.90
2018-10-05T04:39:10.332Z,99.90
2018-10-05T04:41:39.780Z,99.90
2018-10-05T04:44:08.102Z,99.90
2018-10-05T04:46:36.353Z,99.90
2018-10-05T04:49:04.518Z,99.90
2018-10-05T04:51:32.792Z,99.90
2018-10-05T04:54:00.932Z,99.90
2018-10-05T04:56:29.095Z,99.90
2018-10-05T04:58:57.235Z,99.90
2018-10-05T05:01:25.328Z,99.90
2018-10-05T05:03:53.480Z,99.90
2018-10-05T05:06:21.679Z,99.90
2018-10-05T05:08:49.966Z,99.90
2018-10-05T05:11:18.037Z,99.90
2018-10-05T05:13:46.199Z,99.90
2018-10-05T05:16:14.401Z,99.90
2018-10-05T05:18:42.564Z,99.90
2018-10-05T05:21:10.716Z,99.90
2018-10-05T05:23:38.959Z,99.90
2018-10-05T05:26:07.193Z,99.90
2018-10-05T05:28:35.338Z,99.90
2018-10-05T05:31:03.617Z,99.90
2018-10-05T05:33:31.847Z,99.90
2018-10-05T05:35:59.979Z,99.90
2018-10-05T05:38:28.169Z,99.90
2018-10-05T05:40:56.353Z,99.90
2018-10-05T05:43:24.497Z,99.90
2018-10-05T05:45:52.686Z,99.90
2018-10-05T05:48:20.846Z,99.90
2018-10-05T05:50:49.072Z,99.90
2018-10-05T05:53:17.213Z,99.90
2018-10-05T05:55:45.371Z,99.90
2018-10-05T05:58:13.576Z,99.90
2018-10-05T06:00:42.019Z,99.90
2018-10-05T06:03:10.241Z,99.90
2018-10-05T06:05:38.383Z,99.90
2018-10-05T06:08:06.599Z,99.90
2018-10-05T06:10:34.822Z,99.90
2018-10-05T06:13:03.051Z,99.90
2018-10-05T06:15:31.192Z,99.90
2018-10-05T06:17:59.365Z,99.90
2018-10-05T06:20:27.570Z,99.90
2018-10-05T06:22:55.764Z,99.90
2018-10-05T06:25:23.917Z,99.90
2018-10-05T06:27:52.041Z,99.90
2018-10-05T06:30:20.322Z,99.90
2018-10-05T06:32:48.541Z,99.90
2018-10-05T06:35:16.645Z,99.90
2018-10-05T06:37:44.759Z,99.90
2018-10-05T06:40:12.922Z,99.90
2018-10-05T06:42:41.125Z,99.90
2018-10-05T06:45:09.244Z,99.90
2018-10-05T06:47:37.405Z,99.90
2018-10-05T06:50:05.655Z,99.90
2018-10-05T06:52:34.609Z,99.90
2018-10-05T06:55:02.827Z,99.90
2018-10-05T06:57:30.998Z,99.90
2018-10-05T06:59:59.142Z,99.90
2018-10-05T07:02:27.266Z,99.90
2018-10-05T07:04:55.449Z,99.90
2018-10-05T07:07:23.621Z,99.90
2018-10-05T07:09:51.715Z,99.90
2018-10-05T07:12:19.810Z,99.90
2018-10-05T07:14:48.162Z,99.90
2018-10-05T07:17:16.301Z,99.90
2018-10-05T07:19:44.444Z,99.90
2018-10-05T07:22:12.671Z,99.90
2018-10-05T07:24:40.743Z,99.90
2018-10-05T07:27:08.924Z,99.90
2018-10-05T07:29:37.070Z,99.90
2018-10-05T07:32:05.265Z,99.90
2018-10-05T07:34:33.350Z,99.90
2018-10-05T07:37:01.501Z,99.90
2018-10-05T07:39:29.646Z,99.90
2018-10-05T07:41:57.830Z,99.90
2018-10-05T07:44:26.005Z,99.90
2018-10-05T07:46:54.191Z,99.90
2018-10-05T07:49:22.383Z,99.90
2018-10-05T07:51:50.528Z,99.90
2018-10-05T07:54:18.670Z,99.90
2018-10-05T07:56:46.862Z,99.90
2018-10-05T07:59:15.105Z,99.90
2018-10-05T08:01:43.340Z,99.90
2018-10-05T08:04:11.525Z,99.90
2018-10-05T08:06:39.691Z,99.90
2018-10-05T08:09:07.872Z,99.90
2018-10-05T08:11:36.142Z,99.90
2018-10-05T08:14:04.290Z,99.90
2018-10-05T08:16:32.501Z,99.90
2018-10-05T08:19:00.718Z,99.90
2018-10-05T08:21:28.949Z,99.90
2018-10-05T08:23:57.103Z,97.60
2018-10-05T08:26:25.304Z,96.20
2018-10-05T08:28:53.444Z,95.30
2018-10-05T08:31:21.875Z,94.80
2018-10-05T08:33:50.090Z,94.30
2018-10-05T08:36:18.216Z,93.60
2018-10-05T08:38:46.380Z,93.70
2018-10-05T08:41:14.481Z,93.10
2018-10-05T08:43:42.707Z,92.10
2018-10-05T08:46:10.814Z,92.40
2018-10-05T08:48:38.921Z,92.40
2018-10-05T08:51:07.075Z,92.50
2018-10-05T08:53:35.156Z,91.90
2018-10-05T08:56:03.319Z,91.50
2018-10-05T08:58:31.463Z,90.60
2018-10-05T09:00:59.559Z,88.40
2018-10-05T09:03:27.660Z,87.90
2018-10-05T09:05:56.020Z,86.50
2018-10-05T09:08:24.015Z,86.80
2018-10-05T09:10:52.152Z,85.60
2018-10-05T09:13:20.260Z,84.40
2018-10-05T09:15:48.425Z,83.20
2018-10-05T09:18:16.632Z,83.60
2018-10-05T09:20:44.731Z,80.90
2018-10-05T09:23:12.877Z,79.80
2018-10-05T09:25:41.124Z,80.80
2018-10-05T09:28:09.313Z,79.60
2018-10-05T09:30:37.546Z,79.70
2018-10-05T09:33:05.655Z,77.60
2018-10-05T09:35:33.792Z,73.60
2018-10-05T09:38:01.980Z,75.70
2018-10-05T09:40:29.936Z,74.50
2018-10-05T09:42:58.012Z,70.50
2018-10-05T09:45:26.127Z,69.30
2018-10-05T09:47:54.277Z,69.10
2018-10-05T09:50:22.476Z,69.80
2018-10-05T09:52:50.693Z,70.30
2018-10-05T09:55:18.972Z,67.60
2018-10-05T09:57:47.074Z,67.30
2018-10-05T10:00:20.771Z,67.30
2018-10-05T10:02:54.411Z,68.80
2018-10-05T10:05:23.177Z,68.00
2018-10-05T10:07:51.691Z,66.70
2018-10-05T10:10:19.929Z,66.70
2018-10-05T10:12:48.152Z,66.30
2018-10-05T10:15:16.257Z,66.10
2018-10-05T10:17:44.372Z,67.50
2018-10-05T10:20:12.516Z,64.50
2018-10-05T10:22:40.746Z,61.90
2018-10-05T10:25:09.048Z,63.00
2018-10-05T10:27:37.206Z,60.80
2018-10-05T10:30:05.440Z,59.30
2018-10-05T10:32:33.587Z,57.60
2018-10-05T10:35:01.647Z,57.80
2018-10-05T10:37:29.732Z,58.10
2018-10-05T10:39:57.831Z,57.80
2018-10-05T10:42:25.993Z,58.20
2018-10-05T10:44:54.182Z,57.00
2018-10-05T10:47:22.311Z,56.80
2018-10-05T10:49:50.383Z,57.60
2018-10-05T10:52:18.470Z,60.30
2018-10-05T10:54:46.566Z,57.00
2018-10-05T10:57:14.729Z,57.10
2018-10-05T10:59:42.888Z,57.20
2018-10-05T11:02:10.997Z,57.50
2018-10-05T11:04:39.342Z,56.20
2018-10-05T11:07:07.324Z,56.50
2018-10-05T11:09:35.393Z,58.40
2018-10-05T11:12:03.576Z,55.20
2018-10-05T11:14:31.798Z,54.70
2018-10-05T11:16:59.997Z,55.80
2018-10-05T11:19:28.096Z,55.60
2018-10-05T11:21:56.277Z,57.20
2018-10-05T11:24:24.424Z,56.40
2018-10-05T11:26:52.725Z,54.90
2018-10-05T11:29:21.116Z,53.30
2018-10-05T11:31:49.277Z,55.60
2018-10-05T11:34:17.473Z,55.90
2018-10-05T11:36:45.609Z,55.00
2018-10-05T11:39:13.704Z,55.70
2018-10-05T11:41:41.873Z,56.40
2018-10-05T11:44:10.020Z,55.30
2018-10-05T11:46:38.103Z,54.60
2018-10-05T11:49:06.256Z,54.10
2018-10-05T11:51:34.357Z,52.10
2018-10-05T11:54:02.511Z,52.20
2018-10-05T11:56:30.595Z,52.60
2018-10-05T11:58:58.701Z,52.50
2018-10-05T12:01:26.847Z,53.70
2018-10-05T12:03:55.111Z,53.10
2018-10-05T12:06:23.256Z,54.60
2018-10-05T12:08:51.343Z,54.00
2018-10-05T12:11:19.459Z,54.40
2018-10-05T12:13:47.696Z,55.70
2018-10-05T12:16:15.764Z,54.30
2018-10-05T12:18:43.891Z,54.10
2018-10-05T12:21:12.101Z,55.20
2018-10-05T12:23:40.241Z,53.90
2018-10-05T12:26:08.766Z,53.60
2018-10-05T12:28:36.935Z,52.50
2018-10-05T12:31:05.090Z,52.80
2018-10-05T12:33:33.262Z,53.20
2018-10-05T12:36:01.373Z,52.20
2018-10-05T12:38:29.590Z,52.20
2018-10-05T12:40:57.784Z,52.50
2018-10-05T12:43:25.945Z,53.10
2018-10-05T12:45:54.181Z,53.90
2018-10-05T12:48:22.361Z,53.70
2018-10-05T12:50:50.461Z,52.90
2018-10-05T12:53:18.604Z,53.10
2018-10-05T12:55:46.763Z,52.40
2018-10-05T12:58:14.945Z,51.70
2018-10-05T13:00:43.076Z,50.40
2018-10-05T13:03:11.226Z,50.50
2018-10-05T13:05:39.607Z,52.20
2018-10-05T13:08:07.777Z,52.00
2018-10-05T13:10:36.032Z,51.40
2018-10-05T13:13:04.178Z,51.80
2018-10-05T13:15:32.292Z,51.20
2018-10-05T13:18:00.748Z,51.60
2018-10-05T13:20:29.024Z,52.60
2018-10-05T13:22:57.649Z,51.80
2018-10-05T13:25:25.803Z,52.80
2018-10-05T13:27:53.891Z,53.80
2018-10-05T13:30:22.028Z,53.60
2018-10-05T13:32:51.148Z,53.30
2018-10-05T13:35:19.357Z,52.30
2018-10-05T13:37:47.487Z,53.40
2018-10-05T13:40:15.652Z,52.70
2018-10-05T13:42:43.783Z,53.40
2018-10-05T13:45:11.912Z,53.10
2018-10-05T13:47:40.100Z,53.70
2018-10-05T13:50:10.227Z,55.00
2018-10-05T13:52:38.377Z,55.90
2018-10-05T13:55:06.589Z,56.60
2018-10-05T13:57:34.728Z,57.60
2018-10-05T14:00:02.881Z,57.40
2018-10-05T14:02:31.503Z,56.80
2018-10-05T14:05:00.034Z,56.80
2018-10-05T14:07:28.565Z,57.00
2018-10-05T14:09:57.076Z,57.90
2018-10-05T14:12:25.558Z,57.60
2018-10-05T14:14:54.042Z,59.80
2018-10-05T14:17:22.519Z,62.10
2018-10-05T14:19:50.739Z,61.70
2018-10-05T14:22:18.860Z,61.30
2018-10-05T14:24:47.053Z,61.50
2018-10-05T14:27:15.206Z,61.20
2018-10-05T14:29:43.375Z,59.50
2018-10-05T14:32:11.645Z,60.70
2018-10-05T14:34:39.841Z,61.10
2018-10-05T14:37:08.026Z,61.50
2018-10-05T14:39:36.335Z,62.70
2018-10-05T14:42:04.471Z,62.70
2018-10-05T14:44:32.923Z,63.60
2018-10-05T14:47:01.074Z,63.90
2018-10-05T14:49:29.233Z,62.90
2018-10-05T14:51:57.369Z,62.60
2018-10-05T14:54:25.501Z,63.40
2018-10-05T14:56:53.639Z,64.40
2018-10-05T14:59:21.743Z,65.10
2018-10-05T15:01:49.820Z,65.90
2018-10-05T15:04:17.925Z,67.20
2018-10-05T15:06:46.063Z,67.70
2018-10-05T15:09:14.173Z,67.40
2018-10-05T15:11:42.369Z,67.40
2018-10-05T15:14:10.549Z,69.20
2018-10-05T15:16:38.652Z,69.50
2018-10-05T15:19:06.735Z,70.80
2018-10-05T15:21:34.915Z,72.10
2018-10-05T15:24:02.972Z,73.80
2018-10-05T15:26:31.047Z,75.00
2018-10-05T15:28:59.180Z,76.50
2018-10-05T15:31:27.337Z,77.80
2018-10-05T15:33:55.513Z,80.30
2018-10-05T15:36:23.699Z,82.10
2018-10-05T15:38:52.033Z,84.20
2018-10-05T15:41:20.125Z,86.60
2018-10-05T15:43:48.268Z,89.10
2018-10-05T15:46:59.069Z,91.10
2018-10-05T15:49:27.968Z,92.00
2018-10-05T15:51:56.177Z,92.60
2018-10-05T15:54:24.307Z,93.00
2018-10-05T15:56:52.810Z,93.20
2018-10-05T15:59:21.032Z,93.70
2018-10-05T16:01:49.189Z,93.80
2018-10-05T16:04:17.653Z,94.10
2018-10-05T16:06:46.335Z,94.50
2018-10-05T16:09:14.562Z,94.70
2018-10-05T16:11:42.734Z,94.90
2018-10-05T16:14:10.917Z,95.30
2018-10-05T16:16:39.128Z,95.90
2018-10-05T16:19:07.714Z,95.70
2018-10-05T16:21:36.390Z,95.90
2018-10-05T16:24:07.079Z,96.10
2018-10-05T16:26:35.158Z,96.40
2018-10-05T16:29:03.388Z,96.70
2018-10-05T16:31:31.778Z,96.80
2018-10-05T16:33:59.940Z,97.10
2018-10-05T16:36:28.093Z,97.20
2018-10-05T16:38:56.285Z,97.30
2018-10-05T16:41:24.469Z,97.50
2018-10-05T16:43:52.609Z,97.70
2018-10-05T16:46:20.781Z,97.90
2018-10-05T16:48:48.973Z,98.10
2018-10-05T16:51:17.149Z,98.30
2018-10-05T16:53:45.377Z,98.30
2018-10-05T16:56:13.693Z,98.40
2018-10-05T16:58:41.854Z,98.50
2018-10-05T17:01:10.060Z,98.50
2018-10-05T17:03:38.223Z,98.50
2018-10-05T17:06:07.985Z,98.50
2018-10-05T17:08:38.793Z,98.70
2018-10-05T17:11:06.986Z,98.60
2018-10-05T17:13:35.137Z,98.60
2018-10-05T17:16:03.327Z,98.60
2018-10-05T17:18:31.467Z,98.60
2018-10-05T17:20:59.662Z,98.60
2018-10-05T17:23:27.891Z,98.70
2018-10-05T17:25:56.372Z,98.80
2018-10-05T17:28:24.498Z,98.70
2018-10-05T17:30:52.625Z,98.70
2018-10-05T17:33:21.602Z,99.10
2018-10-05T17:35:49.839Z,98.90
2018-10-05T17:38:18.342Z,98.60
2018-10-05T17:40:46.473Z,98.70
2018-10-05T17:43:14.628Z,98.80
2018-10-05T17:46:13.935Z,98.90
2018-10-05T17:48:42.255Z,99.00
2018-10-05T17:51:10.532Z,99.20
2018-10-05T17:53:38.705Z,99.50
2018-10-05T17:56:07.113Z,99.40
2018-10-05T17:58:35.217Z,99.50
2018-10-05T18:01:03.420Z,99.80
2018-10-05T18:03:31.594Z,99.90
2018-10-05T18:05:59.720Z,99.90
2018-10-05T18:08:27.972Z,99.90
2018-10-05T18:10:56.110Z,99.90
2018-10-05T18:13:24.285Z,99.90
2018-10-05T18:15:52.445Z,99.90
2018-10-05T18:18:20.662Z,99.90
2018-10-05T18:20:48.841Z,99.90
2018-10-05T18:23:16.960Z,99.90
2018-10-05T18:25:45.134Z,99.90
2018-10-05T18:28:13.395Z,99.90
2018-10-05T18:30:41.511Z,99.90
2018-10-05T18:33:09.680Z,99.90
2018-10-05T18:35:37.836Z,99.90
2018-10-05T18:38:06.320Z,99.90
2018-10-05T18:40:34.512Z,99.90
2018-10-05T18:43:02.693Z,99.90
2018-10-05T18:45:30.876Z,99.90
2018-10-05T18:47:59.244Z,99.90
2018-10-05T18:50:27.380Z,99.90
2018-10-05T18:52:55.491Z,99.90
2018-10-05T18:55:23.937Z,99.90
2018-10-05T18:57:51.992Z,99.90
2018-10-05T19:00:20.140Z,99.90
2018-10-05T19:02:48.544Z,99.90
2018-10-05T19:05:16.665Z,99.90
2018-10-05T19:07:44.923Z,99.90
2018-10-05T19:10:13.079Z,99.90
2018-10-05T19:12:41.183Z,99.90
2018-10-05T19:15:09.333Z,99.90
2018-10-05T19:17:37.500Z,99.90
2018-10-05T19:20:05.632Z,99.90
2018-10-05T19:22:33.769Z,99.90
2018-10-05T19:25:02.013Z,99.90
2018-10-05T19:27:30.141Z,99.90
2018-10-05T19:29:58.302Z,99.90
2018-10-05T19:32:26.469Z,99.90
2018-10-05T19:34:54.663Z,99.90
2018-10-05T19:37:22.816Z,99.90
2018-10-05T19:39:51.003Z,99.90
2018-10-05T19:42:19.221Z,99.90
2018-10-05T19:44:47.453Z,99.90
2018-10-05T19:47:15.614Z,99.90
2018-10-05T19:49:43.779Z,99.90
2018-10-05T19:52:11.956Z,99.90
2018-10-05T19:54:40.176Z,99.90
2018-10-05T19:57:20.848Z,99.90
2018-10-05T19:59:48.995Z,99.90
2018-10-05T20:02:17.141Z,99.90
2018-10-05T20:04:45.297Z,99.90
2018-10-05T20:07:13.521Z,99.90
2018-10-05T20:09:42.815Z,99.90
2018-10-05T20:12:11.160Z,99.90
2018-10-05T20:14:39.421Z,99.90
2018-10-05T20:17:07.670Z,99.90
2018-10-05T20:19:35.763Z,99.90
2018-10-05T20:22:03.968Z,99.90
2018-10-05T20:24:32.271Z,99.90
2018-10-05T20:27:00.420Z,99.90
2018-10-05T20:29:28.623Z,99.90
2018-10-05T20:31:56.788Z,99.90
2018-10-05T20:34:24.979Z,99.90
2018-10-05T20:36:53.343Z,99.90
2018-10-05T20:39:22.392Z,99.90
2018-10-05T20:41:51.486Z,99.90
2018-10-05T20:44:19.829Z,99.90
2018-10-05T20:46:49.460Z,99.90
2018-10-05T20:49:17.578Z,99.90
2018-10-05T20:51:45.810Z,99.90
2018-10-05T20:54:15.267Z,99.90
2018-10-05T20:56:43.430Z,99.90
2018-10-05T20:59:11.653Z,99.90
2018-10-05T21:01:39.794Z,99.90
2018-10-05T21:04:07.960Z,99.90
2018-10-05T21:06:36.124Z,99.90
2018-10-05T21:09:06.451Z,99.90
2018-10-05T21:11:34.685Z,99.90
2018-10-05T21:14:02.950Z,99.90
2018-10-05T21:16:31.105Z,99.90
2018-10-05T21:18:59.328Z,99.90
2018-10-05T21:21:27.621Z,99.90
2018-10-05T21:23:55.797Z,99.90
2018-10-05T21:26:23.952Z,99.90
2018-10-05T21:28:52.132Z,99.90
2018-10-05T21:31:20.428Z,99.90
2018-10-05T21:33:48.700Z,99.90
2018-10-05T21:36:16.832Z,99.90
2018-10-05T21:38:44.969Z,99.90
2018-10-05T21:41:13.177Z,99.90
2018-10-05T21:43:41.313Z,99.90
2018-10-05T21:46:09.454Z,99.90
2018-10-05T21:48:37.685Z,99.90
2018-10-05T21:51:05.791Z,99.90
2018-10-05T21:53:34.051Z,99.90
2018-10-05T21:56:02.165Z,99.90
2018-10-05T21:58:30.323Z,99.90
2018-10-05T22:00:58.524Z,99.90
2018-10-05T22:03:26.668Z,99.90
2018-10-05T22:06:58.187Z,99.90
2018-10-05T22:09:26.363Z,99.90
2018-10-05T22:11:54.505Z,99.90
2018-10-05T22:14:22.669Z,99.90
2018-10-05T22:16:50.881Z,99.90
2018-10-05T22:19:19.053Z,99.90
2018-10-05T22:21:47.184Z,99.90
2018-10-05T22:24:15.413Z,99.90
2018-10-05T22:26:43.508Z,99.90
2018-10-05T22:29:11.734Z,99.90
2018-10-05T22:31:39.872Z,99.90
2018-10-05T22:34:08.211Z,99.90
2018-10-05T22:36:36.385Z,99.90
2018-10-05T22:39:05.695Z,99.90
2018-10-05T22:41:33.976Z,99.90
2018-10-05T22:44:02.040Z,99.90
2018-10-05T22:46:30.194Z,99.90
2018-10-05T22:48:58.423Z,99.90
2018-10-05T22:51:26.657Z,99.90
2018-10-05T22:53:54.819Z,99.90
2018-10-05T22:56:22.991Z,99.90
2018-10-05T22:58:51.097Z,99.90
2018-10-05T23:01:19.200Z,99.90
2018-10-05T23:03:47.394Z,99.90
2018-10-05T23:06:15.628Z,99.90
2018-10-05T23:08:43.832Z,99.90
2018-10-05T23:11:12.048Z,99.90
2018-10-05T23:13:40.179Z,99.90
2018-10-05T23:16:08.428Z,99.90
2018-10-05T23:18:36.703Z,99.90
2018-10-05T23:21:04.776Z,99.90
2018-10-05T23:23:32.944Z,99.90
2018-10-05T23:26:01.060Z,99.90
2018-10-05T23:28:29.200Z,99.90
2018-10-05T23:30:57.453Z,99.90
2018-10-05T23:33:25.624Z,99.90
2018-10-05T23:35:53.784Z,99.90
2018-10-05T23:38:21.885Z,99.90
2018-10-05T23:40:50.047Z,99.90
2018-10-05T23:43:18.273Z,99.90
2018-10-05T23:45:46.426Z,99.90
2018-10-05T23:48:14.588Z,99.90
2018-10-05T23:50:42.668Z,99.90
2018-10-05T23:53:10.763Z,99.90
2018-10-05T23:55:38.994Z,99.90
2018-10-05T23:58:07.121Z,99.90
